Flight Track Log - Related Links

Times and Time Zones

All times are in EDT time to prevent confusion due to time zone crossing. See the SKW6345 flight status page for this flight to view local times or setup timezone preferences in your user account.

Time Position Orientation Groundspeed Altitude Reporting Facility
EDT Latitude Longitude Course Direction KTS MPH feet Rate Location/Type
Sun 11:22:15 AM 39.7317 -104.6900 195° South 236 272 9,000  Level Denver Center
Sun 11:23:00 AM 39.6880 -104.3672 205° Southwest  Level FlightAware
Sun 11:23:17 AM 39.6475 -104.6969 184° South 280 322 11,200  Level Denver Center
Sun 11:24:00 AM 39.5864 -104.4352 210° Southwest  Level FlightAware
Sun 11:24:19 AM 39.5703 -104.7442 205° Southwest 306 352 13,600  Level Denver Center
Sun 11:25:00 AM 39.4835 -104.4999 201° Southwest  Level FlightAware
Sun 11:25:21 AM 39.4917 -104.8028 210° Southwest 326 375 15,800  Level Denver Center
Sun 11:26:00 AM 39.3951 -104.5931 237° Southwest  Level FlightAware
Sun 11:26:23 AM 39.4042 -104.8683 210° Southwest 341 392 18,000  Level Denver Center
Sun 11:27:25 AM 39.3203 -104.9297 210° Southwest 349 402 20,000 1,756 Climbing Denver Center
Sun 11:28:26 AM 39.2481 -104.9856 211° Southwest 355 409 21,600 1,984 Climbing Denver Center
Sun 11:29:29 AM 39.1353 -105.0669 209° Southwest 356 410 24,100 1,824 Climbing Denver Center
Sun 11:30:31 AM 39.0433 -105.1250 206° Southwest 362 417 25,400 1,306 Climbing Denver Center
Sun 11:31:33 AM 38.9475 -105.1864 206° Southwest 378 435 26,800 1,403 Climbing Denver Center
Sun 11:32:35 AM 38.8492 -105.2492 206° Southwest 389 448 28,300 1,403 Climbing Denver Center
Sun 11:33:37 AM 38.7514 -105.3117 206° Southwest 388 447 29,700 1,258 Climbing Denver Center
Sun 11:34:39 AM 38.6542 -105.3731 206° Southwest 387 445 30,900 1,113 Climbing Denver Center
Sun 11:35:41 AM 38.5533 -105.4375 207° Southwest 398 458 32,000 1,065 Climbing Denver Center
Sun 11:36:43 AM 38.4547 -105.5011 207° Southwest 395 455 33,100 1,113 Climbing Denver Center
Sun 11:37:45 AM 38.3611 -105.6133 223° Southwest 389 448 34,300 1,161 Climbing Denver Center
Sun 11:38:47 AM 38.2872 -105.7019 223° Southwest 391 450 35,500 919 Climbing Denver Center
Sun 11:39:49 AM 38.2000 -105.8058 223° Southwest 386 444 36,200 581 Climbing Denver Center
Sun 11:40:51 AM 38.1228 -105.8972 223° Southwest 394 453 36,700 581 Climbing Denver Center
Sun 11:41:53 AM 38.0294 -106.0058 223° Southwest 405 466 37,400 629 Climbing Denver Center
Sun 11:42:55 AM 37.9517 -106.0972 223° Southwest 401 461 38,000 290 Climbing Denver Center
Sun 11:43:57 AM 37.8589 -106.2067 223° Southwest 407 468 38,000  Level Denver Center
Sun 11:44:59 AM 37.7842 -106.2953 223° Southwest 408 470 38,000  Level Denver Center
Sun 11:46:01 AM 37.6919 -106.3986 222° Southwest 396 456 38,000  Level Denver Center
Sun 11:47:03 AM 37.6178 -106.4872 223° Southwest 385 443 38,000  Level Denver Center
Sun 11:48:05 AM 37.5289 -106.5897 222° Southwest 388 447 38,000  Level Denver Center
Sun 11:49:07 AM 37.4506 -106.6781 222° Southwest 392 451 38,000  Level Denver Center
Sun 11:50:09 AM 37.3597 -106.7839 223° Southwest 398 458 38,000  Level Denver Center
Sun 11:51:11 AM 37.2806 -106.8744 222° Southwest 401 461 38,000  Level Denver Center
Sun 11:52:14 AM 37.1864 -106.9800 222° Southwest 405 466 38,000  Level Denver Center
Sun 11:53:16 AM 37.1069 -107.0719 223° Southwest 406 467 38,000  Level Denver Center
Sun 11:54:18 AM 37.0117 -107.1783 222° Southwest 411 473 38,000  Level Denver Center
Sun 11:55:20 AM 36.9306 -107.2703 222° Southwest 410 472 38,000  Level Denver Center
Sun 11:56:22 AM 36.8497 -107.3628 222° Southwest 411 473 38,000  Level Denver Center
Sun 11:57:24 AM 36.7558 -107.4683 222° Southwest 406 467 38,000  Level Denver Center
Sun 11:58:26 AM 36.6742 -107.5583 221° Southwest 406 467 38,000  Level Denver Center
Sun 11:59:28 AM 36.5806 -107.6642 222° Southwest 408 470 38,000  Level Denver Center
Sun 12:00:30 PM 36.4997 -107.7528 221° Southwest 405 466 38,000  Level Denver Center
Sun 12:01:32 PM 36.4047 -107.8575 222° Southwest 407 468 38,000  Level Denver Center
Sun 12:02:34 PM 36.3250 -107.9475 222° Southwest 404 465 38,000  Level Denver Center
Sun 12:03:36 PM 36.2306 -108.0522 222° Southwest 406 467 38,000  Level Denver Center
Sun 12:04:38 PM 36.1492 -108.1403 221° Southwest 406 467 38,000  Level Denver Center
Sun 12:05:15 PM 36.0958 -108.2006 222° Southwest 403 464 38,000  Level Albuquerque Center
Sun 12:06:17 PM 36.0153 -108.2883 221° Southwest 402 463 38,000  Level Albuquerque Center
Sun 12:07:19 PM 35.9214 -108.3911 222° Southwest 401 461 38,000  Level Albuquerque Center
Sun 12:08:21 PM 35.8419 -108.4778 221° Southwest 398 458 38,000  Level Albuquerque Center
Sun 12:09:22 PM 35.7542 -108.5842 225° Southwest 395 455 38,000  Level Albuquerque Center
Sun 12:10:24 PM 35.6800 -108.6761 225° Southwest 393 452 38,000  Level Albuquerque Center
Sun 12:11:26 PM 35.6064 -108.7667 225° Southwest 391 450 38,000 -484 Level Albuquerque Center
Sun 12:12:28 PM 35.5186 -108.8747 225° Southwest 395 455 37,000 -976 Descending Albuquerque Center
Sun 12:13:29 PM 35.4425 -108.9694 225° Southwest 402 463 36,000 -488 Descending Albuquerque Center
Sun 12:14:31 PM 35.3561 -109.0767 225° Southwest 398 458 36,000  Level Albuquerque Center
Sun 12:15:33 PM 35.2811 -109.1664 224° Southwest 393 452 36,000  Level Albuquerque Center
Sun 12:16:35 PM 35.2058 -109.2578 225° Southwest 395 455 36,000  Level Albuquerque Center
Sun 12:17:36 PM 35.1169 -109.3653 225° Southwest 401 461 36,000  Level Albuquerque Center
Sun 12:18:38 PM 35.0428 -109.4561 225° Southwest 397 457 36,000  Level Albuquerque Center
Sun 12:19:40 PM 34.9533 -109.5586 223° Southwest 394 453 36,000  Level Albuquerque Center
Sun 12:20:42 PM 34.8789 -109.6486 225° Southwest 394 453 36,000  Level Albuquerque Center
Sun 12:21:44 PM 34.7928 -109.7528 225° Southwest 391 450 36,000  Level Albuquerque Center
Sun 12:22:46 PM 34.7197 -109.8403 225° Southwest 387 445 36,000  Level Albuquerque Center
Sun 12:23:48 PM 34.6681 -109.9672 244° Southwest 374 430 36,000  Level Albuquerque Center
Sun 12:24:50 PM 34.6269 -110.0756 245° Southwest 371 427 36,000 -97 Level Albuquerque Center
Sun 12:25:52 PM 34.5825 -110.2067 248° West 373 429 35,800 -823 Descending Albuquerque Center
Sun 12:26:54 PM 34.5364 -110.3142 243° Southwest 376 433 34,300 -1,610 Descending Albuquerque Center
Sun 12:27:55 PM 34.4931 -110.4381 247° West 387 445 32,500 -1,854 Descending Albuquerque Center
Sun 12:28:57 PM 34.4503 -110.5547 246° West 384 442 30,500 -1,742 Descending Albuquerque Center
Sun 12:29:59 PM 34.4075 -110.6667 245° Southwest 371 427 28,900 -1,210 Descending Albuquerque Center
Sun 12:31:01 PM 34.3594 -110.7775 242° Southwest 372 428 28,000 -435 Descending Albuquerque Center
Sun 12:32:03 PM 34.2942 -110.8764 231° Southwest 376 433 28,000 -48 Level Albuquerque Center
Sun 12:33:05 PM 34.2067 -110.9858 226° Southwest 378 435 27,900 -1,355 Descending Albuquerque Center
Sun 12:34:07 PM 34.1367 -111.0756 227° Southwest 372 428 25,200 -2,661 Descending Albuquerque Center
Sun 12:35:09 PM 34.0700 -111.1619 227° Southwest 359 413 22,400 -2,710 Descending Albuquerque Center
Sun 12:36:11 PM 34.0050 -111.2453 227° Southwest 346 398 19,600 -2,371 Descending Albuquerque Center
Sun 12:37:13 PM 33.9436 -111.3233 227° Southwest 322 371 17,500 -1,935 Descending Albuquerque Center
Sun 12:38:15 PM 33.8864 -111.3975 227° Southwest 304 350 15,600 -1,548 Descending Albuquerque Center
Sun 12:39:17 PM 33.8331 -111.4942 236° Southwest 289 333 14,300 -1,355 Descending Albuquerque Center
Sun 12:40:19 PM 33.7897 -111.5767 238° Southwest 290 334 12,800 -1,597 Descending Albuquerque Center
Sun 12:41:21 PM 33.7481 -111.6558 238° Southwest 280 322 11,000 -1,355 Descending Albuquerque Center
Sun 12:42:23 PM 33.7069 -111.7342 238° Southwest 276 318 10,000 -919 Descending Albuquerque Center
Sun 12:43:25 PM 33.6636 -111.8122 236° Southwest 278 320 9,100 -484 Descending Albuquerque Center
Sun 12:44:27 PM 33.6242 -111.8839 237° Southwest 259 298 9,000 -145 Descending Albuquerque Center
Sun 12:45:29 PM 33.5897 -111.9486 237° Southwest 233 268 8,800 -532 Descending Albuquerque Center
Sun 12:46:31 PM 33.5558 -112.0139 238° Southwest 231 266 7,900 -1,016 Descending Albuquerque Center
Sun 12:47:33 PM 33.5261 -112.0956 246° West 225 259 6,700 -1,452 Descending Albuquerque Center
Sun 12:48:35 PM 33.4933 -112.1397 228° Southwest 199 229 4,900 -1,742 Descending Albuquerque Center
Sun 12:49:37 PM 33.4461 -112.1258 166° South 178 205 3,100 -1,742 Descending Albuquerque Center

Login

Don't have an account? Register now (free) for customized features, flight alerts, and more!